sensor_id;sensor_type;location;lat;lon;timestamp;temperature;humidity
22742;DHT22;11538;48.884;8.696;2023-07-29T00:01:40;18.30;99.90
22742;DHT22;11538;48.884;8.696;2023-07-29T00:04:08;18.30;99.90
22742;DHT22;11538;48.884;8.696;2023-07-29T00:06:35;18.20;99.90
22742;DHT22;11538;48.884;8.696;2023-07-29T00:09:03;18.30;99.90
22742;DHT22;11538;48.884;8.696;2023-07-29T00:11:29;18.30;99.90
22742;DHT22;11538;48.884;8.696;2023-07-29T00:13:57;18.20;99.90
22742;DHT22;11538;48.884;8.696;2023-07-29T00:16:23;18.30;99.90
22742;DHT22;11538;48.884;8.696;2023-07-29T00:18:51;18.30;99.90
22742;DHT22;11538;48.884;8.696;2023-07-29T00:21:18;18.20;99.90
22742;DHT22;11538;48.884;8.696;2023-07-29T00:23:45;18.30;99.90
22742;DHT22;11538;48.884;8.696;2023-07-29T00:26:12;18.20;99.90
22742;DHT22;11538;48.884;8.696;2023-07-29T00:28:38;18.20;99.90
22742;DHT22;11538;48.884;8.696;2023-07-29T00:31:05;18.20;99.90
22742;DHT22;11538;48.884;8.696;2023-07-29T00:33:32;18.20;99.90
22742;DHT22;11538;48.884;8.696;2023-07-29T00:35:59;18.20;99.90
22742;DHT22;11538;48.884;8.696;2023-07-29T00:38:28;18.20;99.90
22742;DHT22;11538;48.884;8.696;2023-07-29T00:40:58;18.20;99.90
22742;DHT22;11538;48.884;8.696;2023-07-29T00:43:28;18.20;99.90
22742;DHT22;11538;48.884;8.696;2023-07-29T00:45:56;18.20;99.90
22742;DHT22;11538;48.884;8.696;2023-07-29T00:48:24;18.20;99.90
22742;DHT22;11538;48.884;8.696;2023-07-29T00:50:52;18.20;99.90
22742;DHT22;11538;48.884;8.696;2023-07-29T00:53:19;18.20;99.90
22742;DHT22;11538;48.884;8.696;2023-07-29T00:55:46;18.20;99.90
22742;DHT22;11538;48.884;8.696;2023-07-29T00:58:13;18.20;99.90
22742;DHT22;11538;48.884;8.696;2023-07-29T01:00:40;18.30;99.90
22742;DHT22;11538;48.884;8.696;2023-07-29T01:03:08;18.20;99.90
22742;DHT22;11538;48.884;8.696;2023-07-29T01:05:40;18.30;99.90
22742;DHT22;11538;48.884;8.696;2023-07-29T01:08:21;18.30;99.90
22742;DHT22;11538;48.884;8.696;2023-07-29T01:13:45;18.30;99.90
22742;DHT22;11538;48.884;8.696;2023-07-29T01:16:20;18.30;99.90
22742;DHT22;11538;48.884;8.696;2023-07-29T01:18:50;18.30;99.90
22742;DHT22;11538;48.884;8.696;2023-07-29T01:21:20;18.30;99.90
22742;DHT22;11538;48.884;8.696;2023-07-29T01:23:52;18.30;99.90
22742;DHT22;11538;48.884;8.696;2023-07-29T01:26:19;18.30;99.90
22742;DHT22;11538;48.884;8.696;2023-07-29T01:28:46;18.30;99.90
22742;DHT22;11538;48.884;8.696;2023-07-29T01:31:19;18.30;99.90
22742;DHT22;11538;48.884;8.696;2023-07-29T01:34:09;18.20;99.90
22742;DHT22;11538;48.884;8.696;2023-07-29T01:36:46;18.20;99.90
22742;DHT22;11538;48.884;8.696;2023-07-29T01:39:16;18.20;99.90
22742;DHT22;11538;48.884;8.696;2023-07-29T01:41:43;18.20;99.90
22742;DHT22;11538;48.884;8.696;2023-07-29T01:44:11;18.20;99.90
22742;DHT22;11538;48.884;8.696;2023-07-29T01:46:43;18.20;99.90
22742;DHT22;11538;48.884;8.696;2023-07-29T01:49:10;18.20;99.90
22742;DHT22;11538;48.884;8.696;2023-07-29T01:51:37;18.20;99.90
22742;DHT22;11538;48.884;8.696;2023-07-29T01:54:04;18.20;99.90
22742;DHT22;11538;48.884;8.696;2023-07-29T01:56:31;18.20;99.90
22742;DHT22;11538;48.884;8.696;2023-07-29T01:58:58;18.20;99.90
22742;DHT22;11538;48.884;8.696;2023-07-29T02:01:25;18.20;99.90
22742;DHT22;11538;48.884;8.696;2023-07-29T02:03:52;18.20;99.90
22742;DHT22;11538;48.884;8.696;2023-07-29T02:06:22;18.10;99.90
22742;DHT22;11538;48.884;8.696;2023-07-29T02:08:49;18.10;99.90
22742;DHT22;11538;48.884;8.696;2023-07-29T02:11:16;18.10;99.90
22742;DHT22;11538;48.884;8.696;2023-07-29T02:13:45;18.10;99.90
22742;DHT22;11538;48.884;8.696;2023-07-29T02:16:12;18.10;99.90
22742;DHT22;11538;48.884;8.696;2023-07-29T02:18:39;18.10;99.90
22742;DHT22;11538;48.884;8.696;2023-07-29T02:21:06;18.10;99.90
22742;DHT22;11538;48.884;8.696;2023-07-29T02:23:32;18.00;99.90
22742;DHT22;11538;48.884;8.696;2023-07-29T02:25:59;18.00;99.90
22742;DHT22;11538;48.884;8.696;2023-07-29T02:28:26;18.00;99.90
22742;DHT22;11538;48.884;8.696;2023-07-29T02:31:14;18.00;99.90
22742;DHT22;11538;48.884;8.696;2023-07-29T02:33:43;18.00;99.90
22742;DHT22;11538;48.884;8.696;2023-07-29T02:36:11;18.00;99.90
22742;DHT22;11538;48.884;8.696;2023-07-29T02:38:39;18.00;99.90
22742;DHT22;11538;48.884;8.696;2023-07-29T02:41:07;18.00;99.90
22742;DHT22;11538;48.884;8.696;2023-07-29T02:43:36;18.00;99.90
22742;DHT22;11538;48.884;8.696;2023-07-29T02:46:03;18.00;99.90
22742;DHT22;11538;48.884;8.696;2023-07-29T02:48:30;18.00;99.90
22742;DHT22;11538;48.884;8.696;2023-07-29T02:50:57;18.00;99.90
22742;DHT22;11538;48.884;8.696;2023-07-29T02:53:24;18.10;99.90
22742;DHT22;11538;48.884;8.696;2023-07-29T02:55:52;18.10;99.90
22742;DHT22;11538;48.884;8.696;2023-07-29T02:58:19;18.10;99.90
22742;DHT22;11538;48.884;8.696;2023-07-29T03:00:46;18.10;99.90
22742;DHT22;11538;48.884;8.696;2023-07-29T03:03:14;18.10;99.90
22742;DHT22;11538;48.884;8.696;2023-07-29T03:05:41;18.10;99.90
22742;DHT22;11538;48.884;8.696;2023-07-29T03:08:08;18.10;99.90
22742;DHT22;11538;48.884;8.696;2023-07-29T03:10:35;18.10;99.90
22742;DHT22;11538;48.884;8.696;2023-07-29T03:13:02;18.10;99.90
22742;DHT22;11538;48.884;8.696;2023-07-29T03:15:29;18.20;99.90
22742;DHT22;11538;48.884;8.696;2023-07-29T03:17:56;18.10;99.90
22742;DHT22;11538;48.884;8.696;2023-07-29T03:20:23;18.10;99.90
22742;DHT22;11538;48.884;8.696;2023-07-29T03:22:50;18.20;99.90
22742;DHT22;11538;48.884;8.696;2023-07-29T03:25:17;18.10;99.90
22742;DHT22;11538;48.884;8.696;2023-07-29T03:27:43;18.20;99.90
22742;DHT22;11538;48.884;8.696;2023-07-29T03:30:10;18.10;99.90
22742;DHT22;11538;48.884;8.696;2023-07-29T03:32:42;18.10;99.90
22742;DHT22;11538;48.884;8.696;2023-07-29T03:35:11;18.20;99.90
22742;DHT22;11538;48.884;8.696;2023-07-29T03:37:38;18.20;99.90
22742;DHT22;11538;48.884;8.696;2023-07-29T03:40:05;18.20;99.90
22742;DHT22;11538;48.884;8.696;2023-07-29T03:42:32;18.20;99.90
22742;DHT22;11538;48.884;8.696;2023-07-29T03:44:59;18.20;99.90
22742;DHT22;11538;48.884;8.696;2023-07-29T03:47:26;18.20;99.90
22742;DHT22;11538;48.884;8.696;2023-07-29T03:49:54;18.20;99.90
22742;DHT22;11538;48.884;8.696;2023-07-29T03:52:20;18.20;99.90
22742;DHT22;11538;48.884;8.696;2023-07-29T03:54:47;18.10;99.90
22742;DHT22;11538;48.884;8.696;2023-07-29T03:57:14;18.10;99.90
22742;DHT22;11538;48.884;8.696;2023-07-29T03:59:41;18.10;99.90
22742;DHT22;11538;48.884;8.696;2023-07-29T04:02:08;18.10;99.90
22742;DHT22;11538;48.884;8.696;2023-07-29T04:04:35;18.10;99.90
22742;DHT22;11538;48.884;8.696;2023-07-29T04:07:02;18.10;99.90
22742;DHT22;11538;48.884;8.696;2023-07-29T04:09:29;18.10;99.90
22742;DHT22;11538;48.884;8.696;2023-07-29T04:11:56;18.20;99.90
22742;DHT22;11538;48.884;8.696;2023-07-29T04:14:23;18.20;99.90
22742;DHT22;11538;48.884;8.696;2023-07-29T04:16:50;18.20;99.90
22742;DHT22;11538;48.884;8.696;2023-07-29T04:19:16;18.30;99.90
22742;DHT22;11538;48.884;8.696;2023-07-29T04:21:43;18.30;99.90
22742;DHT22;11538;48.884;8.696;2023-07-29T04:24:10;18.30;99.90
22742;DHT22;11538;48.884;8.696;2023-07-29T04:26:37;18.30;99.90
22742;DHT22;11538;48.884;8.696;2023-07-29T04:29:05;18.30;99.90
22742;DHT22;11538;48.884;8.696;2023-07-29T04:31:32;18.20;99.90
22742;DHT22;11538;48.884;8.696;2023-07-29T04:33:59;18.30;99.90
22742;DHT22;11538;48.884;8.696;2023-07-29T04:36:26;18.30;99.90
22742;DHT22;11538;48.884;8.696;2023-07-29T04:38:52;18.30;99.90
22742;DHT22;11538;48.884;8.696;2023-07-29T04:41:19;18.30;99.90
22742;DHT22;11538;48.884;8.696;2023-07-29T04:43:46;18.30;99.90
22742;DHT22;11538;48.884;8.696;2023-07-29T04:46:13;18.40;99.90
22742;DHT22;11538;48.884;8.696;2023-07-29T04:48:40;18.40;99.90
22742;DHT22;11538;48.884;8.696;2023-07-29T04:51:06;18.40;99.90
22742;DHT22;11538;48.884;8.696;2023-07-29T04:53:33;18.40;99.90
22742;DHT22;11538;48.884;8.696;2023-07-29T04:56:02;18.50;99.90
22742;DHT22;11538;48.884;8.696;2023-07-29T04:58:29;18.50;99.90
22742;DHT22;11538;48.884;8.696;2023-07-29T05:00:56;18.60;99.90
22742;DHT22;11538;48.884;8.696;2023-07-29T05:03:23;18.60;99.90
22742;DHT22;11538;48.884;8.696;2023-07-29T05:05:50;18.70;99.90
22742;DHT22;11538;48.884;8.696;2023-07-29T05:08:18;18.70;99.90
22742;DHT22;11538;48.884;8.696;2023-07-29T05:10:48;18.70;99.90
22742;DHT22;11538;48.884;8.696;2023-07-29T05:13:15;18.70;99.90
22742;DHT22;11538;48.884;8.696;2023-07-29T05:15:42;18.80;99.90
22742;DHT22;11538;48.884;8.696;2023-07-29T05:18:09;18.80;99.90
22742;DHT22;11538;48.884;8.696;2023-07-29T05:20:37;18.90;99.90
22742;DHT22;11538;48.884;8.696;2023-07-29T05:23:03;18.90;99.90
22742;DHT22;11538;48.884;8.696;2023-07-29T05:25:30;18.90;99.90
22742;DHT22;11538;48.884;8.696;2023-07-29T05:27:57;19.00;99.90
22742;DHT22;11538;48.884;8.696;2023-07-29T05:30:24;19.00;99.90
22742;DHT22;11538;48.884;8.696;2023-07-29T05:32:50;19.00;99.90
22742;DHT22;11538;48.884;8.696;2023-07-29T05:35:17;19.10;99.90
22742;DHT22;11538;48.884;8.696;2023-07-29T05:37:44;19.10;99.90
22742;DHT22;11538;48.884;8.696;2023-07-29T05:40:11;19.20;99.90
22742;DHT22;11538;48.884;8.696;2023-07-29T05:42:38;19.20;99.90
22742;DHT22;11538;48.884;8.696;2023-07-29T05:45:05;19.20;99.90
22742;DHT22;11538;48.884;8.696;2023-07-29T05:47:32;19.20;99.90
22742;DHT22;11538;48.884;8.696;2023-07-29T05:49:59;19.20;99.90
22742;DHT22;11538;48.884;8.696;2023-07-29T05:52:34;19.30;99.90
22742;DHT22;11538;48.884;8.696;2023-07-29T05:55:01;19.30;99.90
22742;DHT22;11538;48.884;8.696;2023-07-29T05:57:28;19.30;99.90
22742;DHT22;11538;48.884;8.696;2023-07-29T05:59:55;19.30;99.90
22742;DHT22;11538;48.884;8.696;2023-07-29T06:02:21;19.40;99.90
22742;DHT22;11538;48.884;8.696;2023-07-29T06:04:48;19.40;99.90
22742;DHT22;11538;48.884;8.696;2023-07-29T06:07:15;19.50;99.90
22742;DHT22;11538;48.884;8.696;2023-07-29T06:09:42;19.50;99.90
22742;DHT22;11538;48.884;8.696;2023-07-29T06:12:09;19.50;99.90
22742;DHT22;11538;48.884;8.696;2023-07-29T06:14:36;19.60;99.90
22742;DHT22;11538;48.884;8.696;2023-07-29T06:17:03;19.60;99.90
22742;DHT22;11538;48.884;8.696;2023-07-29T06:19:30;19.60;99.90
22742;DHT22;11538;48.884;8.696;2023-07-29T06:21:56;19.60;99.90
22742;DHT22;11538;48.884;8.696;2023-07-29T06:24:23;19.60;99.90
22742;DHT22;11538;48.884;8.696;2023-07-29T06:26:50;19.60;99.90
22742;DHT22;11538;48.884;8.696;2023-07-29T06:29:17;19.60;99.90
22742;DHT22;11538;48.884;8.696;2023-07-29T06:31:44;19.60;99.90
22742;DHT22;11538;48.884;8.696;2023-07-29T06:34:10;19.60;99.90
22742;DHT22;11538;48.884;8.696;2023-07-29T06:36:37;19.50;99.90
22742;DHT22;11538;48.884;8.696;2023-07-29T06:39:07;19.50;99.90
22742;DHT22;11538;48.884;8.696;2023-07-29T06:41:34;19.50;99.90
22742;DHT22;11538;48.884;8.696;2023-07-29T06:44:01;19.50;99.90
22742;DHT22;11538;48.884;8.696;2023-07-29T06:46:28;19.40;99.90
22742;DHT22;11538;48.884;8.696;2023-07-29T06:48:55;19.40;99.90
22742;DHT22;11538;48.884;8.696;2023-07-29T06:51:21;19.40;99.90
22742;DHT22;11538;48.884;8.696;2023-07-29T06:53:48;19.50;99.90
22742;DHT22;11538;48.884;8.696;2023-07-29T06:56:15;19.50;99.90
22742;DHT22;11538;48.884;8.696;2023-07-29T06:58:42;19.50;99.90
22742;DHT22;11538;48.884;8.696;2023-07-29T07:01:09;19.50;99.90
22742;DHT22;11538;48.884;8.696;2023-07-29T07:03:36;19.50;99.90
22742;DHT22;11538;48.884;8.696;2023-07-29T07:06:03;19.50;99.90
22742;DHT22;11538;48.884;8.696;2023-07-29T07:08:31;19.60;99.90
22742;DHT22;11538;48.884;8.696;2023-07-29T07:10:58;19.70;99.90
22742;DHT22;11538;48.884;8.696;2023-07-29T07:13:25;19.70;99.90
22742;DHT22;11538;48.884;8.696;2023-07-29T07:15:54;19.70;99.90
22742;DHT22;11538;48.884;8.696;2023-07-29T07:18:21;19.80;99.90
22742;DHT22;11538;48.884;8.696;2023-07-29T07:20:51;19.90;99.90
22742;DHT22;11538;48.884;8.696;2023-07-29T07:23:18;20.00;99.90
22742;DHT22;11538;48.884;8.696;2023-07-29T07:25:45;20.00;99.90
22742;DHT22;11538;48.884;8.696;2023-07-29T07:28:12;20.00;99.90
22742;DHT22;11538;48.884;8.696;2023-07-29T07:30:39;20.10;99.90
22742;DHT22;11538;48.884;8.696;2023-07-29T07:33:07;20.20;99.90
22742;DHT22;11538;48.884;8.696;2023-07-29T07:35:34;20.20;99.90
22742;DHT22;11538;48.884;8.696;2023-07-29T07:38:01;20.20;99.90
22742;DHT22;11538;48.884;8.696;2023-07-29T07:40:30;20.30;99.90
22742;DHT22;11538;48.884;8.696;2023-07-29T07:42:58;20.40;99.90
22742;DHT22;11538;48.884;8.696;2023-07-29T07:45:24;20.50;99.90
22742;DHT22;11538;48.884;8.696;2023-07-29T07:47:52;20.60;99.90
22742;DHT22;11538;48.884;8.696;2023-07-29T07:50:21;20.70;99.90
22742;DHT22;11538;48.884;8.696;2023-07-29T07:52:48;20.90;99.90
22742;DHT22;11538;48.884;8.696;2023-07-29T07:55:15;21.00;99.90
22742;DHT22;11538;48.884;8.696;2023-07-29T07:57:41;21.20;99.90
22742;DHT22;11538;48.884;8.696;2023-07-29T08:00:08;21.30;99.90
22742;DHT22;11538;48.884;8.696;2023-07-29T08:02:36;21.40;99.90
22742;DHT22;11538;48.884;8.696;2023-07-29T08:05:03;21.40;99.90
22742;DHT22;11538;48.884;8.696;2023-07-29T08:07:30;21.50;99.90
22742;DHT22;11538;48.884;8.696;2023-07-29T08:09:57;21.50;99.90
22742;DHT22;11538;48.884;8.696;2023-07-29T08:12:24;21.50;99.90
22742;DHT22;11538;48.884;8.696;2023-07-29T08:14:51;21.50;99.90
22742;DHT22;11538;48.884;8.696;2023-07-29T08:17:18;21.50;99.90
22742;DHT22;11538;48.884;8.696;2023-07-29T08:19:44;21.50;99.90
22742;DHT22;11538;48.884;8.696;2023-07-29T08:22:11;21.50;99.90
22742;DHT22;11538;48.884;8.696;2023-07-29T08:24:38;21.60;99.90
22742;DHT22;11538;48.884;8.696;2023-07-29T08:27:05;21.60;99.90
22742;DHT22;11538;48.884;8.696;2023-07-29T08:29:32;21.60;99.90
22742;DHT22;11538;48.884;8.696;2023-07-29T08:31:59;21.60;99.90
22742;DHT22;11538;48.884;8.696;2023-07-29T08:34:26;21.70;99.90
22742;DHT22;11538;48.884;8.696;2023-07-29T08:36:53;21.70;99.90
22742;DHT22;11538;48.884;8.696;2023-07-29T08:39:20;21.80;99.90
22742;DHT22;11538;48.884;8.696;2023-07-29T08:42:06;21.80;99.90
22742;DHT22;11538;48.884;8.696;2023-07-29T08:44:40;21.80;99.90
22742;DHT22;11538;48.884;8.696;2023-07-29T08:47:08;21.80;99.90
22742;DHT22;11538;48.884;8.696;2023-07-29T08:49:36;21.80;99.90
22742;DHT22;11538;48.884;8.696;2023-07-29T08:52:03;21.90;99.90
22742;DHT22;11538;48.884;8.696;2023-07-29T08:54:31;22.00;99.90
22742;DHT22;11538;48.884;8.696;2023-07-29T08:56:58;22.00;99.90
22742;DHT22;11538;48.884;8.696;2023-07-29T08:59:26;22.20;99.90
22742;DHT22;11538;48.884;8.696;2023-07-29T09:01:55;22.30;99.90
22742;DHT22;11538;48.884;8.696;2023-07-29T09:04:24;22.30;99.90
22742;DHT22;11538;48.884;8.696;2023-07-29T09:06:51;22.40;99.90
22742;DHT22;11538;48.884;8.696;2023-07-29T09:09:20;22.50;99.90
22742;DHT22;11538;48.884;8.696;2023-07-29T09:11:48;22.60;99.90
22742;DHT22;11538;48.884;8.696;2023-07-29T09:14:15;22.60;99.90
22742;DHT22;11538;48.884;8.696;2023-07-29T09:16:42;22.70;99.90
22742;DHT22;11538;48.884;8.696;2023-07-29T09:19:09;22.70;99.90
22742;DHT22;11538;48.884;8.696;2023-07-29T09:21:38;22.60;99.90
22742;DHT22;11538;48.884;8.696;2023-07-29T09:24:06;22.60;99.90
22742;DHT22;11538;48.884;8.696;2023-07-29T09:26:34;22.40;99.90
22742;DHT22;11538;48.884;8.696;2023-07-29T09:29:02;22.30;99.90
22742;DHT22;11538;48.884;8.696;2023-07-29T09:31:29;22.20;99.90
22742;DHT22;11538;48.884;8.696;2023-07-29T09:34:00;22.00;99.90
22742;DHT22;11538;48.884;8.696;2023-07-29T09:36:30;21.80;99.90
22742;DHT22;11538;48.884;8.696;2023-07-29T09:38:58;21.50;99.90
22742;DHT22;11538;48.884;8.696;2023-07-29T09:41:26;21.20;99.90
22742;DHT22;11538;48.884;8.696;2023-07-29T09:44:01;21.00;99.90
22742;DHT22;11538;48.884;8.696;2023-07-29T09:46:33;20.80;99.90
22742;DHT22;11538;48.884;8.696;2023-07-29T09:49:03;20.60;99.90
22742;DHT22;11538;48.884;8.696;2023-07-29T09:51:31;20.50;99.90
22742;DHT22;11538;48.884;8.696;2023-07-29T09:54:03;20.50;99.90
22742;DHT22;11538;48.884;8.696;2023-07-29T09:56:30;20.40;99.90
22742;DHT22;11538;48.884;8.696;2023-07-29T09:58:57;20.40;99.90
22742;DHT22;11538;48.884;8.696;2023-07-29T10:01:24;20.50;99.90
22742;DHT22;11538;48.884;8.696;2023-07-29T10:03:51;20.50;99.90
22742;DHT22;11538;48.884;8.696;2023-07-29T10:06:19;20.50;99.90
22742;DHT22;11538;48.884;8.696;2023-07-29T10:08:46;20.60;99.90
22742;DHT22;11538;48.884;8.696;2023-07-29T10:11:14;20.70;99.90
22742;DHT22;11538;48.884;8.696;2023-07-29T10:13:42;20.90;99.90
22742;DHT22;11538;48.884;8.696;2023-07-29T10:16:22;21.00;99.90
22742;DHT22;11538;48.884;8.696;2023-07-29T10:18:51;21.10;99.90
22742;DHT22;11538;48.884;8.696;2023-07-29T10:21:19;21.20;99.90
22742;DHT22;11538;48.884;8.696;2023-07-29T10:23:49;21.20;99.90
22742;DHT22;11538;48.884;8.696;2023-07-29T10:26:20;21.30;99.90
22742;DHT22;11538;48.884;8.696;2023-07-29T10:28:47;21.30;99.90
22742;DHT22;11538;48.884;8.696;2023-07-29T10:31:17;21.40;99.90
22742;DHT22;11538;48.884;8.696;2023-07-29T10:33:44;21.40;99.90
22742;DHT22;11538;48.884;8.696;2023-07-29T10:36:12;21.40;99.90
22742;DHT22;11538;48.884;8.696;2023-07-29T10:38:40;21.50;99.90
22742;DHT22;11538;48.884;8.696;2023-07-29T10:41:07;21.70;99.90
22742;DHT22;11538;48.884;8.696;2023-07-29T10:43:37;22.00;99.90
22742;DHT22;11538;48.884;8.696;2023-07-29T10:46:21;22.40;99.90
22742;DHT22;11538;48.884;8.696;2023-07-29T10:51:36;23.10;99.90
22742;DHT22;11538;48.884;8.696;2023-07-29T10:54:10;23.40;99.90
22742;DHT22;11538;48.884;8.696;2023-07-29T10:56:42;23.80;99.90
22742;DHT22;11538;48.884;8.696;2023-07-29T11:01:50;24.40;99.90
22742;DHT22;11538;48.884;8.696;2023-07-29T11:07:18;24.80;99.90
22742;DHT22;11538;48.884;8.696;2023-07-29T11:12:34;25.10;99.90
22742;DHT22;11538;48.884;8.696;2023-07-29T11:15:03;25.20;99.90
22742;DHT22;11538;48.884;8.696;2023-07-29T11:17:40;25.40;99.90
22742;DHT22;11538;48.884;8.696;2023-07-29T11:20:09;25.50;99.90
22742;DHT22;11538;48.884;8.696;2023-07-29T11:22:36;25.60;99.90
22742;DHT22;11538;48.884;8.696;2023-07-29T11:25:05;25.70;99.90
22742;DHT22;11538;48.884;8.696;2023-07-29T11:27:33;25.90;99.90
22742;DHT22;11538;48.884;8.696;2023-07-29T11:30:01;26.00;99.90
22742;DHT22;11538;48.884;8.696;2023-07-29T11:32:31;26.20;99.90
22742;DHT22;11538;48.884;8.696;2023-07-29T11:37:56;26.70;99.90
22742;DHT22;11538;48.884;8.696;2023-07-29T11:40:23;27.00;99.90
22742;DHT22;11538;48.884;8.696;2023-07-29T11:42:51;27.20;99.90
22742;DHT22;11538;48.884;8.696;2023-07-29T11:45:19;27.40;99.90
22742;DHT22;11538;48.884;8.696;2023-07-29T11:47:51;27.50;99.90
22742;DHT22;11538;48.884;8.696;2023-07-29T11:50:18;27.50;99.90
22742;DHT22;11538;48.884;8.696;2023-07-29T11:52:46;27.60;99.90
22742;DHT22;11538;48.884;8.696;2023-07-29T11:55:14;27.70;99.90
22742;DHT22;11538;48.884;8.696;2023-07-29T11:57:42;27.80;99.90
22742;DHT22;11538;48.884;8.696;2023-07-29T12:00:10;27.90;99.90
22742;DHT22;11538;48.884;8.696;2023-07-29T12:02:39;28.00;99.90
22742;DHT22;11538;48.884;8.696;2023-07-29T12:05:11;27.90;99.90
22742;DHT22;11538;48.884;8.696;2023-07-29T12:07:39;27.90;99.90
22742;DHT22;11538;48.884;8.696;2023-07-29T12:10:08;27.80;99.90
22742;DHT22;11538;48.884;8.696;2023-07-29T12:12:45;27.80;99.90
22742;DHT22;11538;48.884;8.696;2023-07-29T12:15:13;27.70;99.90
22742;DHT22;11538;48.884;8.696;2023-07-29T12:17:40;27.80;99.90
22742;DHT22;11538;48.884;8.696;2023-07-29T12:20:11;27.90;99.90
22742;DHT22;11538;48.884;8.696;2023-07-29T12:22:38;28.00;99.90
22742;DHT22;11538;48.884;8.696;2023-07-29T12:25:05;28.20;99.90
22742;DHT22;11538;48.884;8.696;2023-07-29T12:27:33;28.50;99.90
22742;DHT22;11538;48.884;8.696;2023-07-29T12:30:00;28.60;99.90
22742;DHT22;11538;48.884;8.696;2023-07-29T12:32:30;28.60;99.90
22742;DHT22;11538;48.884;8.696;2023-07-29T12:34:57;28.40;99.90
22742;DHT22;11538;48.884;8.696;2023-07-29T12:37:30;28.20;99.90
22742;DHT22;11538;48.884;8.696;2023-07-29T12:39:58;28.00;99.90
22742;DHT22;11538;48.884;8.696;2023-07-29T12:42:25;27.80;99.90
22742;DHT22;11538;48.884;8.696;2023-07-29T12:44:52;27.60;99.90
22742;DHT22;11538;48.884;8.696;2023-07-29T12:47:19;27.60;99.90
22742;DHT22;11538;48.884;8.696;2023-07-29T12:49:46;27.50;99.90
22742;DHT22;11538;48.884;8.696;2023-07-29T12:52:12;27.40;99.90
22742;DHT22;11538;48.884;8.696;2023-07-29T12:54:40;27.50;99.90
22742;DHT22;11538;48.884;8.696;2023-07-29T12:57:08;27.70;99.90
22742;DHT22;11538;48.884;8.696;2023-07-29T12:59:34;28.00;99.90
22742;DHT22;11538;48.884;8.696;2023-07-29T13:02:01;28.10;99.90
22742;DHT22;11538;48.884;8.696;2023-07-29T13:04:30;28.20;99.90
22742;DHT22;11538;48.884;8.696;2023-07-29T13:06:57;28.30;99.90
22742;DHT22;11538;48.884;8.696;2023-07-29T13:09:26;28.20;99.90
22742;DHT22;11538;48.884;8.696;2023-07-29T13:11:52;28.30;99.90
22742;DHT22;11538;48.884;8.696;2023-07-29T13:14:19;28.30;99.90
22742;DHT22;11538;48.884;8.696;2023-07-29T13:16:46;28.30;99.90
22742;DHT22;11538;48.884;8.696;2023-07-29T13:19:13;28.30;99.90
22742;DHT22;11538;48.884;8.696;2023-07-29T13:21:40;28.30;99.90
22742;DHT22;11538;48.884;8.696;2023-07-29T13:24:06;28.20;99.90
22742;DHT22;11538;48.884;8.696;2023-07-29T13:26:33;28.10;99.90
22742;DHT22;11538;48.884;8.696;2023-07-29T13:29:00;28.10;99.90
22742;DHT22;11538;48.884;8.696;2023-07-29T13:31:27;28.10;99.90
22742;DHT22;11538;48.884;8.696;2023-07-29T13:33:54;28.00;99.90
22742;DHT22;11538;48.884;8.696;2023-07-29T13:36:21;27.90;99.90
22742;DHT22;11538;48.884;8.696;2023-07-29T13:38:48;27.80;99.90
22742;DHT22;11538;48.884;8.696;2023-07-29T13:41:14;27.80;99.90
22742;DHT22;11538;48.884;8.696;2023-07-29T13:43:41;28.00;99.90
22742;DHT22;11538;48.884;8.696;2023-07-29T13:46:08;28.30;99.90
22742;DHT22;11538;48.884;8.696;2023-07-29T13:48:35;28.80;99.90
22742;DHT22;11538;48.884;8.696;2023-07-29T13:51:02;29.20;99.90
22742;DHT22;11538;48.884;8.696;2023-07-29T13:53:29;29.50;99.90
22742;DHT22;11538;48.884;8.696;2023-07-29T13:55:56;29.80;99.90
22742;DHT22;11538;48.884;8.696;2023-07-29T13:58:23;30.20;99.90
22742;DHT22;11538;48.884;8.696;2023-07-29T14:00:50;30.50;99.90
22742;DHT22;11538;48.884;8.696;2023-07-29T14:03:17;30.70;99.90
22742;DHT22;11538;48.884;8.696;2023-07-29T14:05:43;31.00;99.90
22742;DHT22;11538;48.884;8.696;2023-07-29T14:08:10;31.10;99.90
22742;DHT22;11538;48.884;8.696;2023-07-29T14:10:37;31.30;99.90
22742;DHT22;11538;48.884;8.696;2023-07-29T14:13:04;31.30;99.90
22742;DHT22;11538;48.884;8.696;2023-07-29T14:15:31;31.10;99.90
22742;DHT22;11538;48.884;8.696;2023-07-29T14:17:59;31.00;99.90
22742;DHT22;11538;48.884;8.696;2023-07-29T14:20:26;30.90;99.90
22742;DHT22;11538;48.884;8.696;2023-07-29T14:22:53;30.70;99.90
22742;DHT22;11538;48.884;8.696;2023-07-29T14:25:19;30.40;99.90
22742;DHT22;11538;48.884;8.696;2023-07-29T14:27:46;30.40;99.90
22742;DHT22;11538;48.884;8.696;2023-07-29T14:30:13;30.50;99.90
22742;DHT22;11538;48.884;8.696;2023-07-29T14:32:40;30.40;99.90
22742;DHT22;11538;48.884;8.696;2023-07-29T14:35:07;30.50;99.90
22742;DHT22;11538;48.884;8.696;2023-07-29T14:37:34;30.50;99.90
22742;DHT22;11538;48.884;8.696;2023-07-29T14:40:01;30.50;99.90
22742;DHT22;11538;48.884;8.696;2023-07-29T14:42:29;30.50;99.90
22742;DHT22;11538;48.884;8.696;2023-07-29T14:44:57;30.50;99.90
22742;DHT22;11538;48.884;8.696;2023-07-29T14:47:24;30.50;99.90
22742;DHT22;11538;48.884;8.696;2023-07-29T14:49:51;30.70;99.90
22742;DHT22;11538;48.884;8.696;2023-07-29T14:52:18;30.90;99.90
22742;DHT22;11538;48.884;8.696;2023-07-29T14:54:45;31.10;99.90
22742;DHT22;11538;48.884;8.696;2023-07-29T14:57:12;31.30;99.90
22742;DHT22;11538;48.884;8.696;2023-07-29T14:59:39;31.50;99.90
22742;DHT22;11538;48.884;8.696;2023-07-29T15:02:06;31.70;99.90
22742;DHT22;11538;48.884;8.696;2023-07-29T15:04:33;31.80;99.90
22742;DHT22;11538;48.884;8.696;2023-07-29T15:07:01;31.80;99.90
22742;DHT22;11538;48.884;8.696;2023-07-29T15:09:28;31.70;99.90
22742;DHT22;11538;48.884;8.696;2023-07-29T15:11:55;31.50;99.90
22742;DHT22;11538;48.884;8.696;2023-07-29T15:14:25;31.20;99.90
22742;DHT22;11538;48.884;8.696;2023-07-29T15:16:51;31.00;99.90
22742;DHT22;11538;48.884;8.696;2023-07-29T15:19:18;30.90;99.90
22742;DHT22;11538;48.884;8.696;2023-07-29T15:21:45;30.80;99.90
22742;DHT22;11538;48.884;8.696;2023-07-29T15:24:13;30.80;99.90
22742;DHT22;11538;48.884;8.696;2023-07-29T15:26:40;30.80;99.90
22742;DHT22;11538;48.884;8.696;2023-07-29T15:29:07;30.60;99.90
22742;DHT22;11538;48.884;8.696;2023-07-29T15:31:35;30.40;99.90
22742;DHT22;11538;48.884;8.696;2023-07-29T15:34:02;30.20;99.90
22742;DHT22;11538;48.884;8.696;2023-07-29T15:36:29;30.20;99.90
22742;DHT22;11538;48.884;8.696;2023-07-29T15:38:56;30.10;99.90
22742;DHT22;11538;48.884;8.696;2023-07-29T15:41:23;30.10;99.90
22742;DHT22;11538;48.884;8.696;2023-07-29T15:43:50;30.20;99.90
22742;DHT22;11538;48.884;8.696;2023-07-29T15:46:17;30.20;99.90
22742;DHT22;11538;48.884;8.696;2023-07-29T15:48:45;30.10;99.90
22742;DHT22;11538;48.884;8.696;2023-07-29T15:51:11;29.80;99.90